FR-0215 weather

Centre Hospitalier Heliport
Annecy, Rhône Alpes, France

Public forecast

Using degrees Celsius for public forecast. Weather courtesy of forecast.io.

METAR (pilot weather report)

Closest report is Annecy-Haute-Savoie-Mont Blanc Airport, 2.4 nm (4.4 km) NNW. Retrieved 2019/09/18 01:30 UTC (18 minutes ago):

LFLP 180130Z AUTO VRB02KT CAVOK 14/11 Q1018

TAF (pilot weather forecast)

Closest forecast is Annecy-Haute-Savoie-Mont Blanc Airport, 2.4 nm (4.4 km) NNW. Retrieved 2019/09/18 03:00 UTC (0 seconds ago):

TAF LFLP 180200Z 1803/1903 VRB02KT CAVOK BECMG 1807/1810 02008KT BECMG 1823/1901 VRB02KT